Time;durP1;ratioP1;P1;durP2;ratioP2;P2;SDS_P1;SDS_P2;PMS_P1;PMS_P2;Temp;Humidity;BMP_temperature;BMP_pressure;BME280_temperature;BME280_humidity;BME280_pressure;Samples;Min_cycle;Max_cycle;Signal;HPM_P1;HPM_P2
2023/07/08 00:00:52;;;;;;;12.93;3.83;;;;;;;22.17;51.32;101538.63;5076944;28;20130;-58
2023/07/08 00:03:18;;;;;;;9.65;3.75;;;;;;;22.02;50.73;101533.63;5077110;28;20028;-58
2023/07/08 00:05:45;;;;;;;9.55;3.90;;;;;;;22.02;50.69;101532.75;5076430;28;20028;-57
2023/07/08 00:08:19;;;;;;;8.55;4.13;;;;;;;21.92;50.68;101522.19;5058631;28;20031;-58
2023/07/08 00:10:44;;;;;;;6.60;3.85;;;;;;;21.92;51.32;101524.88;5076737;28;20032;-57
2023/07/08 00:13:10;;;;;;;8.18;4.20;;;;;;;21.88;51.11;101522.31;5076255;28;20663;-57
2023/07/08 00:15:37;;;;;;;8.68;3.92;;;;;;;21.78;51.37;101529.75;5076780;28;20048;-58
2023/07/08 00:18:11;;;;;;;7.30;3.53;;;;;;;21.82;51.50;101522.47;5076533;28;20031;-57
2023/07/08 00:20:44;;;;;;;9.50;4.00;;;;;;;21.75;51.46;101527.13;5076330;28;20033;-59
2023/07/08 00:23:10;;;;;;;6.43;3.70;;;;;;;21.72;51.50;101520.03;5076322;28;20028;-56
2023/07/08 00:25:36;;;;;;;5.57;3.80;;;;;;;21.71;51.64;101528.09;5076457;28;20386;-57
2023/07/08 00:28:04;;;;;;;6.45;4.05;;;;;;;21.67;51.64;101523.72;5076110;28;20486;-58
2023/07/08 00:30:31;;;;;;;7.28;3.85;;;;;;;21.62;52.04;101521.16;5076164;28;20036;-57
2023/07/08 00:32:57;;;;;;;6.47;3.83;;;;;;;21.58;52.03;101516.75;5076167;28;20035;-56
2023/07/08 00:35:28;;;;;;;7.05;4.18;;;;;;;21.55;52.28;101513.28;5076005;28;20021;-56
2023/07/08 00:38:01;;;;;;;11.57;4.10;;;;;;;21.49;52.53;101511.59;5076007;28;20094;-57
2023/07/08 00:40:28;;;;;;;6.80;4.00;;;;;;;21.52;52.05;101503.47;5076229;28;20040;-56
2023/07/08 00:42:54;;;;;;;5.50;3.83;;;;;;;21.46;52.74;101512.59;5076042;28;20502;-57
2023/07/08 00:45:40;;;;;;;8.32;3.90;;;;;;;21.48;52.13;101513.41;5075845;28;20025;-56
2023/07/08 00:48:22;;;;;;;11.32;4.00;;;;;;;21.37;52.85;101504.75;5076062;28;20027;-56
2023/07/08 00:50:48;;;;;;;8.70;4.00;;;;;;;21.29;53.60;101505.81;5076081;28;20408;-58
2023/07/08 00:53:22;;;;;;;10.65;4.00;;;;;;;21.25;53.11;101500.50;5075856;28;20067;-57
2023/07/08 00:55:48;;;;;;;9.20;3.80;;;;;;;21.22;53.49;101497.88;5075951;28;20070;-57
2023/07/08 00:58:16;;;;;;;8.45;3.67;;;;;;;21.16;53.53;101503.41;5075056;28;20036;-57
2023/07/08 01:00:41;;;;;;;8.70;3.88;;;;;;;21.12;53.51;101496.31;5075093;28;20025;-58
2023/07/08 01:03:07;;;;;;;7.60;4.00;;;;;;;21.01;53.53;101501.03;5075618;28;20039;-57
2023/07/08 01:05:34;;;;;;;7.85;4.00;;;;;;;21.01;54.06;101501.91;5075422;28;20082;-57
2023/07/08 01:08:03;;;;;;;6.63;3.90;;;;;;;21.01;53.96;101509.09;5075673;28;20064;-56
2023/07/08 01:10:37;;;;;;;5.78;3.60;;;;;;;21.06;53.80;101503.63;5075358;28;20080;-57
2023/07/08 01:13:07;;;;;;;6.05;3.80;;;;;;;20.94;54.24;101500.31;5075182;28;20078;-58
2023/07/08 01:15:39;;;;;;;6.07;4.20;;;;;;;20.95;54.26;101498.50;5075631;28;20036;-57
2023/07/08 01:18:05;;;;;;;6.97;4.00;;;;;;;20.96;54.19;101502.94;5075532;28;20028;-57
2023/07/08 01:20:31;;;;;;;6.85;4.10;;;;;;;20.85;54.72;101507.66;5075359;28;20116;-56
2023/07/08 01:22:57;;;;;;;9.20;3.90;;;;;;;20.80;54.96;101499.69;5075104;28;20108;-56
2023/07/08 01:25:22;;;;;;;8.27;3.97;;;;;;;20.86;54.65;101504.97;5075297;28;20460;-58
2023/07/08 01:27:53;;;;;;;6.78;3.83;;;;;;;20.82;54.44;101503.25;5075174;28;20040;-58
2023/07/08 01:30:18;;;;;;;5.95;3.80;;;;;;;20.80;54.86;101504.19;5057798;28;20068;-58
2023/07/08 01:32:49;;;;;;;9.13;4.10;;;;;;;20.80;54.98;101504.19;5074998;28;20025;-57
2023/07/08 01:35:15;;;;;;;7.18;4.00;;;;;;;20.79;54.71;101500.63;5074949;28;20035;-56
2023/07/08 01:38:07;;;;;;;7.97;4.18;;;;;;;20.78;54.71;101498.84;5074848;28;20025;-56
2023/07/08 01:40:36;;;;;;;9.57;4.30;;;;;;;20.70;54.94;101500.81;5074463;28;20048;-57
2023/07/08 01:43:03;;;;;;;6.32;4.00;;;;;;;20.68;54.89;101492.78;5074831;28;20052;-57
2023/07/08 01:45:39;;;;;;;9.60;4.15;;;;;;;20.71;54.71;101497.19;5074961;28;20025;-57
2023/07/08 01:48:12;;;;;;;5.45;3.85;;;;;;;20.68;54.91;101494.56;5074779;28;20034;-57
2023/07/08 01:50:51;;;;;;;9.52;3.97;;;;;;;20.70;55.09;101490.94;5074808;28;20031;-57
2023/07/08 01:53:34;;;;;;;7.35;4.10;;;;;;;20.70;54.79;101492.75;5074476;28;20032;-56
2023/07/08 01:56:00;;;;;;;7.93;4.38;;;;;;;20.69;55.04;101491.88;5074607;28;20104;-57
2023/07/08 01:58:26;;;;;;;10.05;3.90;;;;;;;20.62;55.24;101483.97;5074422;28;20116;-56
2023/07/08 02:00:52;;;;;;;8.15;3.97;;;;;;;20.64;54.83;101477.66;5074534;28;20028;-57
2023/07/08 02:03:18;;;;;;;10.10;3.75;;;;;;;20.62;54.89;101474.13;5056476;28;20036;-58
2023/07/08 02:05:43;;;;;;;9.68;4.03;;;;;;;20.51;55.32;101473.44;5074302;28;20382;-56
2023/07/08 02:08:09;;;;;;;8.15;3.72;;;;;;;20.46;55.43;101472.63;5074359;28;20052;-58
2023/07/08 02:10:34;;;;;;;5.35;3.80;;;;;;;20.45;55.26;101463.69;5073807;28;20025;-57
2023/07/08 02:13:00;;;;;;;8.43;4.20;;;;;;;20.45;55.58;101471.75;5074079;28;20025;-57
2023/07/08 02:15:26;;;;;;;9.73;4.07;;;;;;;20.40;55.74;101468.25;5074275;28;20028;-57
2023/07/08 02:17:52;;;;;;;6.40;4.20;;;;;;;20.36;55.75;101463.88;5056276;28;20031;-58
2023/07/08 02:20:17;;;;;;;5.72;3.90;;;;;;;20.32;56.00;101458.59;5074142;28;20029;-56
2023/07/08 02:22:43;;;;;;;5.97;4.00;;;;;;;20.34;56.00;101457.66;5074072;28;20028;-57
2023/07/08 02:25:11;;;;;;;6.47;4.25;;;;;;;20.28;56.28;101449.72;5073764;28;20170;-57
2023/07/08 02:27:38;;;;;;;6.07;3.78;;;;;;;20.29;56.42;101445.22;5074182;28;20127;-56
2023/07/08 02:30:04;;;;;;;6.53;4.20;;;;;;;20.14;56.47;101441.06;5074010;28;20075;-57
2023/07/08 02:32:29;;;;;;;7.35;4.07;;;;;;;20.13;56.53;101440.19;5073848;28;20052;-58
2023/07/08 02:34:54;;;;;;;6.35;4.13;;;;;;;20.12;56.89;101443.75;5073920;28;20532;-56
2023/07/08 02:37:20;;;;;;;7.05;3.92;;;;;;;20.14;56.96;101441.94;5073615;28;20033;-57
2023/07/08 02:39:45;;;;;;;8.23;4.10;;;;;;;20.08;56.92;101442.03;5073667;28;20146;-57
2023/07/08 02:42:11;;;;;;;7.30;3.95;;;;;;;20.01;57.55;101435.91;5073583;28;20493;-56
2023/07/08 02:44:36;;;;;;;6.07;3.95;;;;;;;19.95;57.04;101436.03;5073489;28;20119;-57
2023/07/08 02:47:02;;;;;;;8.20;4.30;;;;;;;19.92;57.80;101438.78;5073478;28;20075;-57
2023/07/08 02:49:27;;;;;;;5.90;4.07;;;;;;;19.89;57.61;101438.81;5073736;28;20025;-57
2023/07/08 02:51:53;;;;;;;6.32;4.00;;;;;;;19.85;58.18;101441.59;5073401;28;20131;-57
2023/07/08 02:54:18;;;;;;;5.60;3.88;;;;;;;19.86;57.72;101435.31;5073148;28;20021;-57
2023/07/08 02:56:43;;;;;;;6.13;4.00;;;;;;;19.81;57.98;101442.56;5073417;28;20541;-58
2023/07/08 02:59:09;;;;;;;7.32;4.18;;;;;;;19.77;58.24;101453.34;5073484;28;20028;-57
2023/07/08 03:01:41;;;;;;;5.32;4.10;;;;;;;19.79;58.16;101447.97;5073238;28;20093;-58
2023/07/08 03:04:13;;;;;;;8.05;4.15;;;;;;;19.72;58.24;101446.28;5073385;28;20375;-58
2023/07/08 03:06:43;;;;;;;6.85;4.00;;;;;;;19.73;58.07;101448.94;5073400;28;20024;-58
2023/07/08 03:09:10;;;;;;;7.15;4.03;;;;;;;19.77;58.04;101457.81;5073034;28;20037;-57
2023/07/08 03:11:36;;;;;;;8.73;4.60;;;;;;;19.78;58.16;101464.94;5073117;28;20025;-58
2023/07/08 03:14:01;;;;;;;6.43;4.28;;;;;;;19.74;58.60;101465.91;5072979;28;20392;-57
2023/07/08 03:16:27;;;;;;;8.57;4.55;;;;;;;19.68;58.51;101455.31;5073442;28;20039;-57
2023/07/08 03:18:53;;;;;;;7.70;4.10;;;;;;;19.69;58.75;101457.94;5073172;28;20362;-56
2023/07/08 03:21:19;;;;;;;12.52;4.07;;;;;;;19.66;58.70;101452.66;5072553;28;20029;-57
2023/07/08 03:23:45;;;;;;;8.13;4.15;;;;;;;19.71;58.99;101453.44;5072508;28;20020;-56
2023/07/08 03:26:16;;;;;;;7.53;4.35;;;;;;;19.73;58.74;101456.97;5054992;28;20382;-58
2023/07/08 03:28:41;;;;;;;7.82;4.18;;;;;;;19.71;58.88;101450.78;5072883;28;20033;-57
2023/07/08 03:31:09;;;;;;;7.53;4.20;;;;;;;19.75;58.49;101457.84;5054605;28;20025;-57
2023/07/08 03:33:34;;;;;;;8.00;4.40;;;;;;;19.81;58.65;101464.00;5072510;28;20047;-56
2023/07/08 03:36:01;;;;;;;6.82;4.45;;;;;;;19.76;58.33;101453.38;5053968;28;20024;-56
2023/07/08 03:38:26;;;;;;;7.50;4.45;;;;;;;19.78;58.91;101456.91;5072265;28;20032;-58
2023/07/08 03:40:52;;;;;;;7.90;4.30;;;;;;;19.76;58.85;101459.63;5072057;28;20025;-57
2023/07/08 03:43:17;;;;;;;9.50;4.40;;;;;;;19.68;59.95;101458.84;5072390;28;20028;-57
2023/07/08 03:45:43;;;;;;;8.13;4.32;;;;;;;19.60;59.30;101462.56;5054216;28;20482;-56
2023/07/08 03:48:11;;;;;;;9.88;4.38;;;;;;;19.60;58.96;101468.78;5072251;28;20032;-57
2023/07/08 03:50:36;;;;;;;9.52;4.22;;;;;;;19.60;59.38;101467.91;5072348;28;20081;-58
2023/07/08 03:53:02;;;;;;;7.07;4.72;;;;;;;19.61;59.30;101464.34;5071867;28;20420;-58
2023/07/08 03:55:28;;;;;;;8.95;4.30;;;;;;;19.55;59.46;101467.09;5072348;28;20047;-57
2023/07/08 03:57:53;;;;;;;8.70;4.70;;;;;;;19.52;59.67;101473.41;5071906;28;20481;-56
2023/07/08 04:00:19;;;;;;;6.63;4.45;;;;;;;19.55;59.39;101461.75;5072100;28;20024;-57
2023/07/08 04:02:45;;;;;;;15.00;4.55;;;;;;;19.60;59.57;101468.78;5071939;28;20111;-57
2023/07/08 04:05:20;;;;;;;9.35;4.53;;;;;;;19.54;59.54;101471.59;5071908;28;20194;-57
2023/07/08 04:07:46;;;;;;;8.52;4.28;;;;;;;19.49;59.76;101477.03;5072226;28;20029;-56
2023/07/08 04:10:12;;;;;;;5.93;4.15;;;;;;;19.47;60.37;101481.50;5072048;28;20036;-57
2023/07/08 04:12:38;;;;;;;11.35;4.68;;;;;;;19.55;59.78;101470.66;5071833;28;20119;-57
2023/07/08 04:15:05;;;;;;;9.57;4.60;;;;;;;19.61;59.68;101473.28;5071797;28;20119;-57
2023/07/08 04:17:30;;;;;;;6.50;4.15;;;;;;;19.62;60.13;101477.75;5053704;28;20025;-56
2023/07/08 04:20:03;;;;;;;6.78;4.35;;;;;;;19.70;59.86;101483.88;5071633;28;20108;-58
2023/07/08 04:22:29;;;;;;;9.98;5.00;;;;;;;19.73;59.57;101488.28;5071801;28;20460;-56
2023/07/08 04:24:55;;;;;;;6.70;4.47;;;;;;;19.79;59.53;101482.81;5071536;28;20112;-57
2023/07/08 04:27:20;;;;;;;9.40;4.63;;;;;;;19.80;59.88;101483.72;5072130;28;20474;-57
2023/07/08 04:29:46;;;;;;;6.35;4.40;;;;;;;19.79;59.39;101477.47;5071790;28;20121;-57
2023/07/08 04:32:11;;;;;;;6.03;4.30;;;;;;;19.69;60.50;101476.72;5071843;28;20082;-57
2023/07/08 04:34:37;;;;;;;6.40;4.60;;;;;;;19.77;59.82;101480.16;5074807;28;20060;-57
2023/07/08 04:37:04;;;;;;;6.55;4.60;;;;;;;19.75;60.32;101479.31;5075767;28;20024;-57
2023/07/08 04:39:30;;;;;;;7.15;4.40;;;;;;;19.66;60.64;101465.19;5057994;28;20123;-57
2023/07/08 04:41:56;;;;;;;6.57;4.10;;;;;;;19.71;60.56;101465.97;5075704;28;20103;-59
2023/07/08 04:44:22;;;;;;;7.90;4.32;;;;;;;19.62;60.31;101469.72;5075291;28;20214;-58
2023/07/08 04:46:53;;;;;;;8.57;4.70;;;;;;;19.74;60.31;101473.94;5075476;28;20025;-58
2023/07/08 04:49:20;;;;;;;5.97;4.45;;;;;;;19.81;59.87;101477.44;5075310;28;20363;-58
2023/07/08 04:51:45;;;;;;;9.20;4.70;;;;;;;19.87;60.48;101472.84;5075216;28;20370;-58
2023/07/08 04:54:11;;;;;;;9.05;4.63;;;;;;;19.94;60.24;101479.84;5075234;28;20027;-58
2023/07/08 04:56:42;;;;;;;6.68;4.63;;;;;;;20.01;60.17;101477.97;5075203;28;20039;-56
2023/07/08 04:59:09;;;;;;;9.38;4.90;;;;;;;20.06;60.17;101472.50;5075070;28;20025;-57
2023/07/08 05:01:35;;;;;;;7.85;4.60;;;;;;;20.09;59.99;101470.66;5074982;28;20452;-58
2023/07/08 05:04:01;;;;;;;6.60;4.88;;;;;;;20.13;60.21;101476.88;5057257;28;20115;-57
2023/07/08 05:06:27;;;;;;;8.13;4.90;;;;;;;20.17;60.06;101473.19;5074808;28;20063;-58
2023/07/08 05:08:53;;;;;;;6.40;4.88;;;;;;;20.20;59.56;101474.00;5075282;28;20105;-57
2023/07/08 05:11:19;;;;;;;6.65;4.78;;;;;;;20.33;59.44;101477.34;5075072;28;20052;-57
2023/07/08 05:13:44;;;;;;;10.70;5.05;;;;;;;20.45;59.42;101473.53;5074708;28;20099;-57
2023/07/08 05:16:09;;;;;;;6.28;4.60;;;;;;;20.62;59.62;101476.78;5074987;28;20113;-59
2023/07/08 05:18:35;;;;;;;10.32;4.60;;;;;;;20.68;59.25;101484.72;5074758;28;20067;-57
2023/07/08 05:21:02;;;;;;;7.35;4.90;;;;;;;20.78;58.83;101474.69;5074570;28;20037;-57
2023/07/08 05:23:28;;;;;;;8.90;4.63;;;;;;;20.90;58.22;101473.53;5074435;28;20020;-57
2023/07/08 05:25:54;;;;;;;7.78;5.10;;;;;;;20.96;58.53;101466.22;5056889;28;20500;-58
2023/07/08 05:28:21;;;;;;;7.07;4.78;;;;;;;21.00;58.31;101467.91;5074624;28;20033;-57
2023/07/08 05:30:47;;;;;;;7.10;5.10;;;;;;;21.04;57.88;101478.59;5074475;28;20504;-57
2023/07/08 05:33:12;;;;;;;7.35;4.75;;;;;;;21.14;58.19;101475.66;5074417;28;20028;-57
2023/07/08 05:35:37;;;;;;;8.30;4.97;;;;;;;21.23;58.02;101467.38;5056409;28;20025;-57
2023/07/08 05:38:03;;;;;;;7.40;5.15;;;;;;;21.31;58.20;101469.88;5074319;28;20070;-58
2023/07/08 05:40:28;;;;;;;7.70;5.10;;;;;;;21.33;57.87;101461.84;5074706;28;20033;-58
2023/07/08 05:42:54;;;;;;;8.80;5.18;;;;;;;21.43;58.03;101466.06;5074301;28;20382;-58
2023/07/08 05:45:19;;;;;;;9.18;5.07;;;;;;;21.56;57.75;101461.25;5073865;28;20059;-56
2023/07/08 05:47:44;;;;;;;8.02;4.90;;;;;;;21.70;56.99;101454.59;5074487;28;20040;-58
2023/07/08 05:50:10;;;;;;;7.93;4.70;;;;;;;21.90;56.73;101466.66;5074105;28;20017;-55
2023/07/08 05:52:35;;;;;;;10.30;4.78;;;;;;;22.00;56.37;101458.28;5074285;28;20113;-57
2023/07/08 05:55:01;;;;;;;7.85;4.95;;;;;;;22.12;55.65;101458.91;5074098;28;20037;-59
2023/07/08 05:57:26;;;;;;;7.88;4.63;;;;;;;22.27;56.16;101465.69;5074040;28;20040;-58
2023/07/08 05:59:52;;;;;;;7.03;5.10;;;;;;;22.35;55.85;101466.34;5073965;28;20056;-57
2023/07/08 06:02:21;;;;;;;9.88;4.82;;;;;;;22.49;55.24;101466.88;5073971;28;20029;-57
2023/07/08 06:04:47;;;;;;;8.82;4.95;;;;;;;22.59;54.64;101460.28;5073752;28;20470;-57
2023/07/08 06:07:12;;;;;;;8.18;5.07;;;;;;;22.70;54.58;101468.94;5073994;28;20024;-57
2023/07/08 06:09:37;;;;;;;7.22;5.00;;;;;;;22.87;54.29;101476.50;5073811;28;20024;-58
2023/07/08 06:12:03;;;;;;;11.25;5.00;;;;;;;22.98;52.90;101477.09;5073971;28;20110;-58
2023/07/08 06:14:29;;;;;;;9.65;5.10;;;;;;;23.09;53.10;101478.59;5073406;28;20046;-57
2023/07/08 06:16:55;;;;;;;11.30;5.05;;;;;;;23.21;53.68;101480.88;5073636;28;20044;-57
2023/07/08 06:19:20;;;;;;;7.18;4.90;;;;;;;23.31;52.08;101482.34;5073696;28;20135;-57
2023/07/08 06:21:46;;;;;;;8.55;4.88;;;;;;;23.44;52.17;101470.25;5073317;28;20521;-57
2023/07/08 06:24:11;;;;;;;8.23;5.25;;;;;;;23.63;53.54;101477.72;5073420;28;20453;-59
2023/07/08 06:26:37;;;;;;;9.93;5.50;;;;;;;23.73;51.34;101479.22;5073528;28;20033;-57
2023/07/08 06:29:03;;;;;;;9.32;5.32;;;;;;;23.75;50.76;101477.34;5073595;28;20048;-58
2023/07/08 06:31:29;;;;;;;8.45;5.18;;;;;;;23.83;50.59;101486.06;5073454;28;20020;-59
2023/07/08 06:33:54;;;;;;;8.55;5.63;;;;;;;23.97;49.77;101477.47;5073380;28;20363;-58
2023/07/08 06:36:19;;;;;;;10.18;4.97;;;;;;;24.14;50.25;101477.75;5073057;28;20067;-58
2023/07/08 06:38:45;;;;;;;9.70;5.32;;;;;;;24.30;50.44;101480.81;5073369;28;20029;-57
2023/07/08 06:41:12;;;;;;;14.02;5.50;;;;;;;24.38;49.34;101483.28;5055218;28;20108;-56
2023/07/08 06:43:37;;;;;;;9.57;5.70;;;;;;;24.59;49.18;101481.59;5073044;28;20025;-58
2023/07/08 06:46:02;;;;;;;9.65;5.07;;;;;;;24.67;47.84;101477.66;5055207;28;20370;-57
2023/07/08 06:48:28;;;;;;;9.32;5.50;;;;;;;24.70;47.79;101479.34;5072682;28;20024;-59
2023/07/08 06:50:54;;;;;;;12.75;5.40;;;;;;;24.89;48.59;101474.13;5072860;28;20032;-58
2023/07/08 06:53:20;;;;;;;10.43;5.30;;;;;;;25.08;48.31;101471.59;5072556;28;20035;-58
2023/07/08 06:55:45;;;;;;;8.05;5.05;;;;;;;25.27;48.31;101475.38;5072847;28;20033;-57
2023/07/08 06:58:11;;;;;;;8.82;5.53;;;;;;;25.53;48.48;101478.81;5072796;28;20374;-57
2023/07/08 07:00:36;;;;;;;10.80;5.72;;;;;;;25.71;46.29;101475.34;5072769;28;20031;-57
2023/07/08 07:03:01;;;;;;;10.32;5.90;;;;;;;25.86;45.23;101481.94;5072730;28;20112;-57
2023/07/08 07:05:27;;;;;;;10.82;6.68;;;;;;;25.78;45.21;101475.97;5072628;28;20425;-58
2023/07/08 07:07:53;;;;;;;11.95;5.70;;;;;;;26.02;45.59;101474.03;5072871;28;20037;-58
2023/07/08 07:10:19;;;;;;;11.55;6.00;;;;;;;26.06;44.86;101476.56;5072790;28;20113;-57
2023/07/08 07:12:45;;;;;;;11.10;5.82;;;;;;;26.11;44.90;101468.22;5072695;28;20029;-60
2023/07/08 07:15:10;;;;;;;11.35;6.72;;;;;;;26.16;44.17;101469.78;5072276;28;20054;-58
2023/07/08 07:17:36;;;;;;;9.13;5.60;;;;;;;26.35;45.39;101463.56;5072562;28;20059;-59
2023/07/08 07:20:03;;;;;;;11.00;6.10;;;;;;;26.42;44.97;101462.31;5072773;28;20063;-58
2023/07/08 07:22:28;;;;;;;12.00;6.47;;;;;;;26.58;43.31;101457.97;5072648;28;20040;-59
2023/07/08 07:24:54;;;;;;;11.52;6.35;;;;;;;26.75;43.95;101451.75;5072513;28;20028;-57
2023/07/08 07:27:20;;;;;;;12.55;6.30;;;;;;;26.89;43.02;101456.53;5072569;28;20028;-58
2023/07/08 07:29:48;;;;;;;11.95;5.60;;;;;;;27.08;44.44;101470.97;5072504;28;20033;-56
2023/07/08 07:32:15;;;;;;;12.30;6.22;;;;;;;27.22;43.11;101467.63;5072766;28;20044;-59
2023/07/08 07:34:40;;;;;;;14.48;6.85;;;;;;;27.40;42.16;101471.25;5054303;28;20060;-57
2023/07/08 07:37:17;;;;;;;15.25;6.75;;;;;;;27.58;41.85;101470.38;5072456;28;20170;-58
2023/07/08 07:39:42;;;;;;;13.23;6.60;;;;;;;27.68;41.33;101465.34;5072288;28;20039;-58
2023/07/08 07:42:09;;;;;;;9.55;6.85;;;;;;;27.83;39.78;101469.13;5072320;28;20024;-58
2023/07/08 07:44:35;;;;;;;11.30;6.20;;;;;;;28.01;41.32;101472.72;5072338;28;20501;-57
2023/07/08 07:47:01;;;;;;;12.43;6.72;;;;;;;28.00;40.04;101469.13;5071571;28;20048;-57
2023/07/08 07:49:27;;;;;;;11.98;6.95;;;;;;;28.09;40.01;101470.47;5072373;28;20025;-58
2023/07/08 07:51:52;;;;;;;12.40;6.63;;;;;;;28.26;39.79;101473.19;5072229;28;20035;-57
2023/07/08 07:54:17;;;;;;;13.18;7.20;;;;;;;28.39;39.99;101466.19;5054220;28;20025;-59
2023/07/08 07:56:43;;;;;;;11.88;6.60;;;;;;;28.55;39.31;101476.22;5072244;28;20035;-58
2023/07/08 07:59:10;;;;;;;10.63;6.68;;;;;;;28.76;40.10;101471.44;5054307;28;20029;-57
2023/07/08 08:01:35;;;;;;;14.80;6.97;;;;;;;28.91;39.22;101465.16;5072169;28;20039;-58
2023/07/08 08:04:00;;;;;;;13.80;6.60;;;;;;;29.10;38.58;101459.56;5054311;28;20406;-58
2023/07/08 08:06:26;;;;;;;10.23;6.15;;;;;;;29.38;37.58;101458.88;5072022;28;20025;-58
2023/07/08 08:08:51;;;;;;;13.13;6.55;;;;;;;29.54;37.79;101459.69;5074139;28;20398;-58
2023/07/08 08:11:16;;;;;;;11.07;6.68;;;;;;;29.53;37.31;101454.34;5058203;28;20020;-59
2023/07/08 08:13:42;;;;;;;22.02;6.40;;;;;;;29.54;37.19;101458.81;5075942;28;20443;-58
2023/07/08 08:16:07;;;;;;;8.75;6.40;;;;;;;29.55;37.80;101460.56;5076344;28;20047;-58
2023/07/08 08:18:33;;;;;;;12.05;6.30;;;;;;;29.68;37.19;101467.13;5075855;28;20028;-59
2023/07/08 08:20:59;;;;;;;12.65;6.03;;;;;;;29.71;37.41;101469.63;5075795;28;20031;-57
2023/07/08 08:23:24;;;;;;;10.00;6.22;;;;;;;29.82;37.52;101477.19;5075897;28;20025;-58
2023/07/08 08:25:50;;;;;;;13.07;6.07;;;;;;;29.97;37.81;101476.25;5075977;28;20489;-59
2023/07/08 08:28:16;;;;;;;14.60;6.00;;;;;;;30.18;37.54;101479.53;5075775;28;20036;-58
2023/07/08 08:30:41;;;;;;;13.32;6.03;;;;;;;30.40;37.00;101470.91;5057749;28;20076;-57
2023/07/08 08:33:07;;;;;;;14.02;6.32;;;;;;;30.53;36.45;101476.47;5057680;28;20386;-57
2023/07/08 08:35:32;;;;;;;13.32;5.95;;;;;;;30.62;36.26;101484.06;5075453;28;20108;-57
2023/07/08 08:37:58;;;;;;;10.18;6.32;;;;;;;30.73;35.41;101484.31;5075765;28;20382;-58
2023/07/08 08:40:23;;;;;;;8.98;6.18;;;;;;;30.86;35.87;101489.84;5075466;28;20116;-60
2023/07/08 08:43:02;;;;;;;11.32;5.95;;;;;;;31.07;35.09;101493.91;5075746;28;20055;-57
2023/07/08 08:45:33;;;;;;;8.98;5.88;;;;;;;31.14;34.93;101488.94;5075680;28;20035;-57
2023/07/08 08:48:05;;;;;;;14.20;6.20;;;;;;;31.34;35.95;101488.53;5075502;28;20036;-57
2023/07/08 08:50:43;;;;;;;11.20;5.82;;;;;;;31.56;35.19;101482.53;5075248;28;20035;-58
2023/07/08 08:53:13;;;;;;;11.40;6.07;;;;;;;31.71;34.52;101482.47;5075617;28;20028;-58
2023/07/08 08:55:40;;;;;;;11.57;6.22;;;;;;;32.00;33.40;101492.31;5075338;28;20043;-58
2023/07/08 08:58:36;;;;;;;11.35;6.30;;;;;;;32.16;34.35;101487.53;5075087;28;20032;-58
2023/07/08 09:01:08;;;;;;;10.43;6.32;;;;;;;32.40;33.47;101489.53;5075235;28;20032;-57
2023/07/08 09:03:37;;;;;;;;;;;;;;;32.58;34.25;101493.69;5075704;28;20058;-58
2023/07/08 09:06:12;;;;;;;16.05;7.15;;;;;;;32.49;32.88;101485.25;5074803;28;20007;-57
2023/07/08 09:08:37;;;;;;;12.48;6.95;;;;;;;32.48;31.97;101495.34;5074978;28;20028;-59
2023/07/08 09:11:25;;;;;;;10.98;7.13;;;;;;;32.83;32.27;101500.13;5074954;28;20021;-58
2023/07/08 09:13:52;;;;;;;14.48;7.25;;;;;;;32.96;30.77;101492.81;5074960;28;20024;-58
2023/07/08 09:16:27;;;;;;;11.23;6.68;;;;;;;33.08;31.36;101494.66;5074861;28;20355;-58
2023/07/08 09:19:11;;;;;;;11.82;6.90;;;;;;;33.36;30.74;101493.47;5074895;28;20078;-58
2023/07/08 09:21:49;;;;;;;10.88;6.30;;;;;;;33.67;30.98;101493.06;5074385;28;20424;-58
2023/07/08 09:24:23;;;;;;;16.40;7.07;;;;;;;33.88;29.76;101489.53;5056846;28;20032;-58
2023/07/08 09:26:51;;;;;;;14.45;7.20;;;;;;;33.87;30.75;101487.75;5075146;28;20029;-57
2023/07/08 09:29:18;;;;;;;13.32;6.60;;;;;;;34.21;30.39;101476.94;5075110;28;20101;-58
2023/07/08 09:31:43;;;;;;;11.50;6.70;;;;;;;34.22;30.65;101478.69;5056609;28;20020;-59
2023/07/08 09:34:16;;;;;;;14.90;6.50;;;;;;;34.41;28.05;101480.84;5074371;28;20025;-58
2023/07/08 09:36:46;;;;;;;10.20;6.25;;;;;;;34.36;27.48;101483.97;5074828;28;20025;-58
2023/07/08 09:39:14;;;;;;;12.20;6.60;;;;;;;34.73;28.65;101475.53;5073811;28;20040;-58
2023/07/08 09:41:40;;;;;;;10.45;7.03;;;;;;;34.71;27.34;101479.41;5074427;28;20024;-59
2023/07/08 09:44:17;;;;;;;12.20;6.82;;;;;;;34.92;28.79;101483.16;5074322;28;20513;-58
2023/07/08 09:46:43;;;;;;;11.88;6.78;;;;;;;35.05;29.25;101470.19;5074299;28;20029;-59
2023/07/08 09:49:32;;;;;;;8.85;6.50;;;;;;;35.39;28.38;101464.63;5072825;28;20032;-59
2023/07/08 09:51:59;;;;;;;9.93;6.65;;;;;;;35.58;27.85;101459.31;5074362;28;20480;-58
2023/07/08 09:54:25;;;;;;;11.40;7.00;;;;;;;35.59;27.13;101462.97;5074247;28;20416;-59
2023/07/08 09:57:19;;;;;;;9.60;6.70;;;;;;;35.85;28.60;101458.84;5074134;28;20048;-58
2023/07/08 09:59:52;;;;;;;12.38;7.10;;;;;;;35.83;27.90;101454.47;5044341;28;20068;-58
2023/07/08 10:02:40;;;;;;;12.68;6.65;;;;;;;35.98;28.14;101457.81;5073191;28;20025;-58
2023/07/08 10:05:26;;;;;;;10.95;7.30;;;;;;;36.22;27.15;101469.41;5073744;28;20111;-58
2023/07/08 10:07:55;;;;;;;10.90;6.60;;;;;;;36.25;27.10;101462.75;5073706;28;20028;-57
2023/07/08 10:10:34;;;;;;;10.32;6.60;;;;;;;36.33;27.69;101463.84;5073638;28;20020;-57
2023/07/08 10:13:03;;;;;;;12.93;6.80;;;;;;;36.27;27.57;101460.72;5056624;28;20029;-59
2023/07/08 10:15:50;;;;;;;9.57;6.60;;;;;;;36.73;26.49;101459.41;5073534;28;20037;-59
2023/07/08 10:18:17;;;;;;;11.75;6.40;;;;;;;36.65;26.31;101462.84;5072574;28;20024;-58
2023/07/08 10:20:48;;;;;;;12.23;6.63;;;;;;;36.58;27.04;101451.53;5073506;28;20021;-58
2023/07/08 10:23:22;;;;;;;11.73;7.20;;;;;;;36.53;26.16;101451.09;5073179;28;20032;-59
2023/07/08 10:26:08;;;;;;;12.20;6.72;;;;;;;37.02;24.53;101465.94;5071075;28;20032;-58
2023/07/08 10:28:33;;;;;;;11.35;7.00;;;;;;;36.91;23.25;101459.63;5071879;28;20123;-58
2023/07/08 10:31:21;;;;;;;11.77;6.43;;;;;;;37.01;22.57;101468.84;5073200;28;20545;-58
2023/07/08 10:34:16;;;;;;;12.13;6.95;;;;;;;37.24;24.51;101463.97;5072803;28;20354;-59
2023/07/08 10:37:15;;;;;;;13.30;6.65;;;;;;;37.47;23.27;101456.31;5072513;28;20035;-58
2023/07/08 10:40:16;;;;;;;9.68;6.43;;;;;;;37.67;22.51;101460.84;5073278;28;20082;-59
2023/07/08 10:43:03;;;;;;;11.77;6.50;;;;;;;37.89;22.22;101456.94;5032575;28;20040;-59
2023/07/08 10:45:39;;;;;;;13.25;6.72;;;;;;;37.75;23.58;101458.22;5073172;28;20103;-59
2023/07/08 10:48:10;;;;;;;13.65;6.80;;;;;;;38.01;22.26;101457.66;5072821;28;20101;-58
2023/07/08 10:50:43;;;;;;;11.70;6.65;;;;;;;37.77;23.91;101455.31;5073030;28;20512;-57
2023/07/08 10:53:08;;;;;;;9.23;6.55;;;;;;;38.13;23.54;101467.53;5072989;28;20077;-58
2023/07/08 10:55:49;;;;;;;11.50;6.60;;;;;;;37.99;23.98;101468.00;5073048;28;20133;-58
2023/07/08 10:58:37;;;;;;;11.47;6.80;;;;;;;38.29;21.66;101465.03;5070885;28;20020;-59
2023/07/08 11:01:17;;;;;;;9.07;6.45;;;;;;;38.02;22.19;101462.16;5072881;28;20108;-58
2023/07/08 11:04:21;;;;;;;10.32;7.20;;;;;;;37.92;22.38;101458.56;5072991;28;20061;-59
2023/07/08 11:06:59;;;;;;;10.43;7.20;;;;;;;37.65;21.24;101464.78;4972313;28;20063;-59
2023/07/08 11:09:40;;;;;;;12.25;6.85;;;;;;;37.85;20.43;101458.22;4972294;28;20035;-59
2023/07/08 11:12:18;;;;;;;11.38;6.53;;;;;;;38.11;19.92;101463.16;5038055;28;20037;-58
2023/07/08 11:14:55;;;;;;;11.27;6.43;;;;;;;37.99;20.14;101454.19;5072725;28;20056;-58
2023/07/08 11:17:57;;;;;;;11.55;7.00;;;;;;;38.13;21.19;101456.50;5072834;28;20028;-59
2023/07/08 11:20:31;;;;;;;10.82;7.15;;;;;;;38.27;21.06;101455.13;5073087;28;20033;-59
2023/07/08 11:23:04;;;;;;;13.10;7.20;;;;;;;38.20;21.94;101457.66;5073087;28;20036;-58
2023/07/08 11:25:31;;;;;;;12.18;6.38;;;;;;;38.48;20.75;101452.22;5054627;28;20024;-58
2023/07/08 11:28:03;;;;;;;12.05;6.65;;;;;;;38.51;19.87;101450.03;5072875;28;20071;-58
2023/07/08 11:30:30;;;;;;;9.63;6.57;;;;;;;38.52;20.57;101453.66;5072140;28;20036;-59